createdAt,value
2018-08-28T00:01:33.181Z,18.10
2018-08-28T00:04:02.204Z,18.10
2018-08-28T00:06:31.247Z,18.10
2018-08-28T00:09:00.317Z,18.10
2018-08-28T00:11:29.445Z,18.10
2018-08-28T00:13:58.537Z,18.10
2018-08-28T00:16:27.560Z,18.20
2018-08-28T00:18:56.651Z,18.20
2018-08-28T00:21:25.674Z,18.30
2018-08-28T00:23:54.717Z,18.30
2018-08-28T00:26:23.761Z,18.30
2018-08-28T00:28:52.776Z,18.30
2018-08-28T00:31:21.829Z,18.30
2018-08-28T00:33:51.034Z,18.20
2018-08-28T00:36:20.073Z,18.20
2018-08-28T00:38:49.153Z,18.20
2018-08-28T00:41:18.157Z,18.20
2018-08-28T00:43:47.211Z,18.20
2018-08-28T00:46:16.217Z,18.20
2018-08-28T00:48:45.259Z,18.30
2018-08-28T00:51:14.277Z,18.30
2018-08-28T00:53:43.410Z,18.30
2018-08-28T00:56:12.407Z,18.30
2018-08-28T00:58:41.425Z,18.20
2018-08-28T01:01:10.477Z,18.20
2018-08-28T01:03:39.497Z,18.20
2018-08-28T01:06:08.571Z,18.10
2018-08-28T01:08:37.570Z,18.10
2018-08-28T01:11:07.413Z,18.00
2018-08-28T01:13:36.487Z,18.00
2018-08-28T01:16:05.548Z,18.00
2018-08-28T01:18:34.610Z,18.00
2018-08-28T01:21:03.601Z,18.00
2018-08-28T01:23:32.737Z,18.00
2018-08-28T01:26:01.740Z,18.00
2018-08-28T01:28:30.886Z,18.00
2018-08-28T01:30:59.888Z,17.90
2018-08-28T01:33:28.934Z,17.80
2018-08-28T01:35:58.007Z,17.80
2018-08-28T01:38:27.016Z,17.90
2018-08-28T01:40:56.086Z,17.90
2018-08-28T01:43:25.612Z,17.90
2018-08-28T01:45:55.292Z,18.00
2018-08-28T01:48:24.329Z,18.00
2018-08-28T01:50:53.604Z,18.00
2018-08-28T01:53:22.720Z,17.90
2018-08-28T01:55:51.770Z,17.90
2018-08-28T01:58:20.836Z,17.80
2018-08-28T02:00:49.828Z,17.80
2018-08-28T02:03:19.173Z,17.70
2018-08-28T02:05:48.250Z,17.70
2018-08-28T02:08:17.244Z,17.60
2018-08-28T02:10:46.296Z,17.50
2018-08-28T02:13:15.449Z,17.60
2018-08-28T02:15:44.500Z,17.50
2018-08-28T02:18:13.517Z,17.50
2018-08-28T02:20:42.915Z,17.40
2018-08-28T02:23:11.924Z,17.30
2018-08-28T02:25:41.033Z,17.30
2018-08-28T02:28:10.111Z,17.30
2018-08-28T02:30:39.178Z,17.20
2018-08-28T02:33:08.194Z,17.20
2018-08-28T02:35:37.257Z,17.10
2018-08-28T02:38:06.302Z,17.10
2018-08-28T02:40:35.457Z,17.00
2018-08-28T02:43:04.452Z,17.20
2018-08-28T02:45:33.490Z,17.10
2018-08-28T02:48:02.495Z,17.00
2018-08-28T02:50:31.537Z,17.00
2018-08-28T02:53:00.609Z,17.00
2018-08-28T02:55:29.620Z,17.00
2018-08-28T02:57:58.769Z,17.00
2018-08-28T03:00:27.815Z,17.00
2018-08-28T03:02:56.929Z,17.00
2018-08-28T03:05:25.917Z,17.00
2018-08-28T03:07:54.962Z,17.00
2018-08-28T03:10:24.036Z,17.10
2018-08-28T03:12:53.101Z,17.10
2018-08-28T03:15:22.166Z,17.10
2018-08-28T03:17:51.186Z,17.10
2018-08-28T03:20:20.217Z,17.10
2018-08-28T03:22:49.265Z,17.10
2018-08-28T03:25:18.248Z,17.20
2018-08-28T03:27:47.301Z,17.20
2018-08-28T03:30:16.350Z,17.20
2018-08-28T03:32:45.380Z,17.20
2018-08-28T03:35:14.481Z,17.30
2018-08-28T03:37:43.542Z,17.30
2018-08-28T03:40:12.565Z,17.30
2018-08-28T03:42:41.652Z,17.30
2018-08-28T03:45:10.762Z,17.30
2018-08-28T03:47:39.807Z,17.30
2018-08-28T03:50:08.848Z,17.30
2018-08-28T03:52:37.908Z,17.30
2018-08-28T03:55:06.975Z,17.30
2018-08-28T03:57:36.009Z,17.30
2018-08-28T04:00:05.111Z,17.30
2018-08-28T04:02:34.153Z,17.30
2018-08-28T04:05:03.185Z,17.20
2018-08-28T04:07:32.256Z,17.20
2018-08-28T04:10:01.293Z,17.10
2018-08-28T04:12:30.357Z,17.10
2018-08-28T04:14:59.397Z,17.00
2018-08-28T04:17:28.422Z,17.00
2018-08-28T04:19:57.437Z,16.80
2018-08-28T04:22:26.497Z,16.60
2018-08-28T04:24:55.485Z,16.40
2018-08-28T04:27:24.521Z,16.30
2018-08-28T04:29:53.582Z,16.20
2018-08-28T04:32:22.690Z,16.20
2018-08-28T04:34:51.707Z,16.10
2018-08-28T04:37:20.723Z,16.10
2018-08-28T04:39:49.753Z,16.00
2018-08-28T04:42:18.766Z,16.00
2018-08-28T04:44:47.821Z,16.00
2018-08-28T04:47:16.848Z,16.10
2018-08-28T04:49:45.864Z,16.10
2018-08-28T04:52:14.908Z,16.20
2018-08-28T04:54:43.956Z,16.20
2018-08-28T04:57:13.065Z,16.10
2018-08-28T04:59:42.306Z,16.10
2018-08-28T05:02:11.520Z,16.10
2018-08-28T05:04:40.579Z,16.10
2018-08-28T05:07:09.573Z,16.00
2018-08-28T05:09:38.581Z,16.00
2018-08-28T05:12:07.605Z,15.90
2018-08-28T05:14:36.621Z,15.90
2018-08-28T05:17:05.825Z,15.90
2018-08-28T05:19:34.866Z,15.90
2018-08-28T05:22:03.929Z,15.90
2018-08-28T05:24:32.972Z,15.90
2018-08-28T05:27:01.969Z,16.00
2018-08-28T05:29:31.013Z,16.00
2018-08-28T05:32:00.054Z,16.10
2018-08-28T05:34:29.158Z,16.00
2018-08-28T05:36:58.250Z,16.00
2018-08-28T05:39:27.285Z,16.10
2018-08-28T05:41:56.318Z,16.20
2018-08-28T05:44:25.349Z,16.20
2018-08-28T05:46:54.393Z,16.30
2018-08-28T05:49:23.453Z,16.40
2018-08-28T05:51:52.488Z,16.40
2018-08-28T05:54:21.525Z,16.40
2018-08-28T05:56:50.565Z,16.50
2018-08-28T05:59:19.615Z,16.60
2018-08-28T06:01:48.665Z,16.70
2018-08-28T06:04:17.654Z,16.90
2018-08-28T06:06:46.717Z,17.00
2018-08-28T06:09:15.790Z,17.20
2018-08-28T06:11:44.886Z,17.30
2018-08-28T06:14:13.973Z,17.40
2018-08-28T06:16:43.029Z,17.60
2018-08-28T06:19:12.047Z,17.80
2018-08-28T06:21:41.111Z,18.00
2018-08-28T06:24:10.089Z,18.10
2018-08-28T06:26:39.228Z,18.40
2018-08-28T06:29:08.273Z,18.50
2018-08-28T06:31:37.274Z,18.60
2018-08-28T06:34:06.469Z,18.80
2018-08-28T06:36:35.414Z,19.00
2018-08-28T06:39:05.778Z,19.10
2018-08-28T06:41:34.779Z,19.20
2018-08-28T06:44:04.096Z,19.30
2018-08-28T06:46:33.089Z,19.60
2018-08-28T06:49:02.085Z,19.80
2018-08-28T06:51:31.178Z,20.10
2018-08-28T06:54:00.193Z,20.10
2018-08-28T06:56:29.189Z,20.20
2018-08-28T06:58:58.254Z,20.40
2018-08-28T07:01:27.290Z,20.80
2018-08-28T07:03:56.308Z,21.10
2018-08-28T07:06:25.353Z,21.50
2018-08-28T07:08:54.335Z,21.60
2018-08-28T07:11:23.371Z,21.40
2018-08-28T07:13:52.389Z,21.50
2018-08-28T07:16:21.432Z,21.70
2018-08-28T07:18:50.539Z,22.20
2018-08-28T07:21:19.484Z,23.10
2018-08-28T07:23:48.585Z,24.60
2018-08-28T07:26:17.562Z,26.30
2018-08-28T07:28:46.596Z,27.00
2018-08-28T07:31:15.704Z,27.70
2018-08-28T07:33:44.685Z,28.30
2018-08-28T07:36:13.745Z,28.60
2018-08-28T07:38:42.754Z,29.50
2018-08-28T07:41:11.797Z,30.40
2018-08-28T07:43:40.807Z,31.30
2018-08-28T07:46:09.804Z,31.60
2018-08-28T07:48:38.851Z,32.10
2018-08-28T07:51:07.903Z,31.00
2018-08-28T07:53:36.926Z,29.50
2018-08-28T07:56:06.316Z,28.80
2018-08-28T07:58:35.396Z,27.30
2018-08-28T08:01:04.414Z,25.90
2018-08-28T08:03:33.457Z,24.90
2018-08-28T08:06:02.503Z,24.00
2018-08-28T08:08:31.502Z,23.40
2018-08-28T08:11:00.718Z,24.00
2018-08-28T08:13:29.729Z,24.20
2018-08-28T08:15:58.738Z,24.20
2018-08-28T08:18:27.768Z,23.90
2018-08-28T08:20:56.791Z,23.20
2018-08-28T08:23:25.841Z,23.00
2018-08-28T08:25:54.865Z,22.60
2018-08-28T08:28:23.901Z,22.30
2018-08-28T08:30:52.896Z,22.20
2018-08-28T08:33:21.888Z,21.70
2018-08-28T08:35:50.964Z,21.60
2018-08-28T08:38:19.981Z,21.50
2018-08-28T08:40:49.041Z,21.60
2018-08-28T08:43:18.144Z,21.50
2018-08-28T08:45:47.161Z,21.40
2018-08-28T08:48:16.238Z,21.50
2018-08-28T08:50:45.448Z,21.30
2018-08-28T08:53:14.512Z,21.30
2018-08-28T08:55:43.612Z,21.40
2018-08-28T08:58:12.660Z,21.40
2018-08-28T09:00:41.705Z,21.70
2018-08-28T09:03:10.730Z,21.70
2018-08-28T09:05:39.731Z,22.00
2018-08-28T09:08:08.897Z,22.10
2018-08-28T09:10:37.935Z,22.30
2018-08-28T09:13:06.933Z,22.30
2018-08-28T09:15:36.006Z,22.50
2018-08-28T09:18:05.184Z,22.60
2018-08-28T09:20:34.237Z,22.70
2018-08-28T09:23:03.544Z,22.60
2018-08-28T09:25:32.584Z,22.60
2018-08-28T09:28:01.614Z,22.70
2018-08-28T09:30:30.681Z,22.50
2018-08-28T09:32:59.721Z,22.60
2018-08-28T09:35:28.847Z,23.00
2018-08-28T09:37:57.800Z,23.10
2018-08-28T09:40:26.858Z,23.10
2018-08-28T09:42:55.844Z,23.30
2018-08-28T09:45:25.014Z,23.40
2018-08-28T09:47:53.999Z,23.30
2018-08-28T09:50:23.224Z,23.30
2018-08-28T09:52:52.048Z,23.50
2018-08-28T09:55:21.037Z,23.60
2018-08-28T09:57:50.077Z,24.00
2018-08-28T10:00:24.452Z,24.60
2018-08-28T10:02:53.526Z,26.10
2018-08-28T10:05:23.104Z,27.40
2018-08-28T10:07:52.209Z,28.50
2018-08-28T10:10:21.153Z,30.40
2018-08-28T10:12:50.247Z,32.20
2018-08-28T10:15:19.263Z,33.60
2018-08-28T10:17:48.255Z,34.60
2018-08-28T10:20:17.357Z,35.60
2018-08-28T10:22:46.395Z,35.00
2018-08-28T10:25:15.513Z,34.80
2018-08-28T10:27:44.519Z,34.20
2018-08-28T10:30:13.666Z,33.40
2018-08-28T10:32:42.650Z,32.90
2018-08-28T10:35:11.663Z,32.40
2018-08-28T10:37:40.711Z,31.90
2018-08-28T10:40:09.797Z,31.90
2018-08-28T10:42:38.849Z,32.20
2018-08-28T10:45:07.906Z,32.50
2018-08-28T10:47:36.928Z,33.30
2018-08-28T10:50:06.027Z,34.40
2018-08-28T10:52:35.134Z,34.90
2018-08-28T10:55:04.154Z,34.90
2018-08-28T10:57:33.201Z,34.80
2018-08-28T11:00:02.213Z,34.80
2018-08-28T11:02:31.280Z,34.70
2018-08-28T11:05:00.366Z,34.70
2018-08-28T11:07:29.421Z,35.40
2018-08-28T11:09:58.461Z,35.60
2018-08-28T11:12:27.487Z,34.90
2018-08-28T11:14:56.568Z,34.10
2018-08-28T11:17:25.681Z,32.90
2018-08-28T11:19:54.858Z,32.50
2018-08-28T11:22:23.964Z,32.80
2018-08-28T11:24:52.989Z,31.60
2018-08-28T11:27:22.016Z,30.30
2018-08-28T11:29:51.068Z,29.60
2018-08-28T11:32:20.073Z,28.80
2018-08-28T11:34:49.202Z,28.30
2018-08-28T11:37:18.213Z,28.10
2018-08-28T11:39:47.250Z,28.00
2018-08-28T11:42:16.300Z,27.60
2018-08-28T11:44:45.300Z,27.40
2018-08-28T11:47:14.669Z,27.30
2018-08-28T11:49:43.694Z,27.60
2018-08-28T11:52:12.874Z,27.60
2018-08-28T11:54:41.943Z,27.20
2018-08-28T11:57:10.955Z,27.30
2018-08-28T11:59:40.013Z,27.80
2018-08-28T12:02:09.263Z,28.90
2018-08-28T12:04:38.257Z,29.60
2018-08-28T12:07:07.973Z,29.30
2018-08-28T12:09:36.949Z,28.50
2018-08-28T12:12:05.989Z,27.70
2018-08-28T12:14:35.197Z,27.10
2018-08-28T12:17:04.272Z,26.70
2018-08-28T12:19:33.306Z,26.70
2018-08-28T12:22:02.354Z,26.50
2018-08-28T12:24:31.388Z,26.30
2018-08-28T12:27:00.398Z,26.30
2018-08-28T12:29:29.470Z,26.30
2018-08-28T12:31:58.493Z,26.20
2018-08-28T12:34:27.554Z,26.30
2018-08-28T12:36:56.672Z,26.30
2018-08-28T12:39:25.629Z,26.30
2018-08-28T12:41:54.775Z,26.60
2018-08-28T12:44:23.781Z,26.50
2018-08-28T12:46:52.831Z,26.30
2018-08-28T12:49:21.832Z,26.20
2018-08-28T12:51:50.906Z,26.00
2018-08-28T12:54:19.940Z,26.10
2018-08-28T12:56:48.951Z,25.90
2018-08-28T12:59:17.977Z,25.90
2018-08-28T13:01:46.986Z,25.60
2018-08-28T13:04:16.041Z,25.40
2018-08-28T13:06:45.070Z,25.40
2018-08-28T13:09:14.166Z,25.40
2018-08-28T13:11:43.213Z,25.70
2018-08-28T13:14:12.265Z,25.80
2018-08-28T13:16:41.488Z,26.00
2018-08-28T13:19:10.509Z,26.00
2018-08-28T13:21:39.542Z,25.90
2018-08-28T13:24:08.537Z,25.90
2018-08-28T13:26:38.437Z,26.00
2018-08-28T13:29:07.469Z,25.90
2018-08-28T13:31:36.460Z,25.90
2018-08-28T13:34:05.549Z,25.90
2018-08-28T13:36:34.614Z,25.90
2018-08-28T13:39:04.304Z,26.10
2018-08-28T13:41:33.394Z,25.90
2018-08-28T13:44:02.402Z,26.00
2018-08-28T13:46:31.543Z,26.10
2018-08-28T13:49:00.485Z,26.00
2018-08-28T13:51:29.561Z,25.90
2018-08-28T13:53:58.686Z,25.90
2018-08-28T13:56:27.686Z,26.00
2018-08-28T13:58:56.709Z,26.00
2018-08-28T14:01:25.764Z,26.10
2018-08-28T14:03:54.772Z,26.10
2018-08-28T14:06:23.837Z,26.10
2018-08-28T14:08:52.865Z,26.00
2018-08-28T14:11:21.907Z,26.10
2018-08-28T14:13:51.031Z,26.20
2018-08-28T14:16:19.936Z,26.20
2018-08-28T14:18:49.912Z,26.10
2018-08-28T14:21:18.981Z,26.00
2018-08-28T14:23:48.010Z,25.80
2018-08-28T14:26:17.042Z,25.90
2018-08-28T14:28:46.151Z,25.80
2018-08-28T14:31:15.144Z,25.80
2018-08-28T14:33:44.179Z,25.60
2018-08-28T14:36:13.253Z,25.60
2018-08-28T14:38:42.288Z,25.70
2018-08-28T14:41:11.475Z,25.60
2018-08-28T14:43:40.569Z,25.50
2018-08-28T14:46:09.710Z,25.40
2018-08-28T14:48:38.722Z,25.40
2018-08-28T14:51:08.084Z,25.40
2018-08-28T14:53:37.109Z,25.40
2018-08-28T14:56:06.254Z,25.50
2018-08-28T14:58:35.373Z,25.60
2018-08-28T15:01:04.381Z,25.70
2018-08-28T15:03:33.400Z,25.60
2018-08-28T15:06:02.497Z,25.50
2018-08-28T15:08:31.876Z,25.50
2018-08-28T15:11:03.796Z,25.50
2018-08-28T15:13:32.897Z,25.50
2018-08-28T15:16:01.889Z,25.50
2018-08-28T15:18:30.912Z,25.50
2018-08-28T15:20:59.958Z,25.50
2018-08-28T15:23:28.893Z,25.50
2018-08-28T15:25:57.917Z,25.50
2018-08-28T15:28:26.939Z,25.50
2018-08-28T15:30:55.969Z,25.60
2018-08-28T15:33:24.953Z,25.70
2018-08-28T15:35:53.940Z,25.60
2018-08-28T15:38:23.017Z,25.50
2018-08-28T15:40:51.986Z,25.50
2018-08-28T15:43:20.986Z,25.60
2018-08-28T15:45:50.036Z,25.70
2018-08-28T15:48:19.074Z,25.70
2018-08-28T15:50:48.081Z,25.70
2018-08-28T15:53:17.457Z,25.70
2018-08-28T15:55:46.433Z,25.60
2018-08-28T15:58:15.479Z,25.50
2018-08-28T16:00:44.614Z,25.50
2018-08-28T16:03:13.645Z,25.50
2018-08-28T16:05:43.085Z,25.40
2018-08-28T16:08:12.124Z,25.40
2018-08-28T16:10:41.165Z,25.20
2018-08-28T16:13:10.143Z,25.20
2018-08-28T16:15:39.445Z,25.00
2018-08-28T16:18:08.518Z,25.00
2018-08-28T16:20:37.484Z,25.00
2018-08-28T16:23:09.006Z,25.00
2018-08-28T16:25:37.990Z,25.00
2018-08-28T16:28:07.058Z,24.90
2018-08-28T16:30:36.048Z,24.90
2018-08-28T16:33:05.096Z,24.80
2018-08-28T16:35:34.105Z,24.70
2018-08-28T16:38:03.105Z,24.60
2018-08-28T16:40:32.174Z,24.50
2018-08-28T16:43:01.190Z,24.40
2018-08-28T16:45:30.189Z,24.40
2018-08-28T16:47:59.213Z,24.40
2018-08-28T16:50:28.205Z,24.30
2018-08-28T16:52:57.229Z,24.20
2018-08-28T16:55:26.238Z,24.20
2018-08-28T16:57:55.257Z,24.20
2018-08-28T17:00:24.245Z,24.10
2018-08-28T17:02:53.233Z,24.10
2018-08-28T17:05:22.260Z,24.00
2018-08-28T17:07:51.298Z,23.90
2018-08-28T17:10:20.318Z,23.80
2018-08-28T17:12:49.297Z,23.80
2018-08-28T17:15:18.356Z,23.70
2018-08-28T17:17:47.360Z,23.70
2018-08-28T17:20:16.432Z,23.60
2018-08-28T17:22:45.457Z,23.50
2018-08-28T17:25:14.572Z,23.50
2018-08-28T17:27:43.821Z,23.40
2018-08-28T17:30:12.865Z,23.40
2018-08-28T17:32:42.401Z,23.30
2018-08-28T17:35:11.411Z,23.30
2018-08-28T17:37:40.445Z,23.20
2018-08-28T17:40:09.449Z,23.20
2018-08-28T17:42:38.630Z,23.10
2018-08-28T17:45:07.617Z,23.10
2018-08-28T17:47:36.609Z,23.00
2018-08-28T17:50:06.378Z,23.00
2018-08-28T17:52:35.449Z,23.00
2018-08-28T17:55:04.625Z,22.90
2018-08-28T17:57:33.631Z,22.80
2018-08-28T18:00:02.675Z,22.80
2018-08-28T18:02:31.877Z,22.80
2018-08-28T18:05:00.888Z,22.70
2018-08-28T18:07:29.868Z,22.60
2018-08-28T18:09:59.105Z,22.50
2018-08-28T18:12:28.128Z,22.50
2018-08-28T18:14:57.097Z,22.40
2018-08-28T18:17:26.153Z,22.30
2018-08-28T18:19:55.446Z,22.30
2018-08-28T18:22:24.464Z,22.20
2018-08-28T18:24:53.461Z,22.10
2018-08-28T18:27:22.504Z,22.00
2018-08-28T18:29:51.490Z,21.90
2018-08-28T18:32:20.469Z,21.90
2018-08-28T18:34:49.542Z,21.80
2018-08-28T18:37:18.526Z,21.70
2018-08-28T18:39:47.573Z,21.60
2018-08-28T18:42:16.587Z,21.60
2018-08-28T18:44:45.683Z,21.50
2018-08-28T18:47:14.786Z,21.40
2018-08-28T18:49:43.834Z,21.40
2018-08-28T18:52:12.895Z,21.30
2018-08-28T18:54:41.914Z,21.30
2018-08-28T18:57:11.023Z,21.20
2018-08-28T18:59:40.005Z,21.10
2018-08-28T19:02:08.997Z,21.10
2018-08-28T19:04:38.032Z,21.00
2018-08-28T19:07:07.061Z,21.00
2018-08-28T19:09:36.098Z,20.90
2018-08-28T19:12:05.096Z,20.80
2018-08-28T19:14:34.155Z,20.80
2018-08-28T19:17:03.284Z,20.70
2018-08-28T19:19:32.317Z,20.60
2018-08-28T19:22:01.386Z,20.60
2018-08-28T19:24:30.400Z,20.60
2018-08-28T19:26:59.513Z,20.60
2018-08-28T19:29:28.554Z,20.50
2018-08-28T19:31:57.553Z,20.50
2018-08-28T19:34:26.564Z,20.50
2018-08-28T19:36:55.598Z,20.40
2018-08-28T19:39:24.608Z,20.30
2018-08-28T19:41:53.708Z,20.30
2018-08-28T19:44:22.751Z,20.30
2018-08-28T19:46:51.949Z,20.20
2018-08-28T19:49:21.215Z,20.20
2018-08-28T19:51:50.613Z,20.20
2018-08-28T19:54:19.923Z,20.10
2018-08-28T19:56:48.969Z,20.10
2018-08-28T19:59:17.969Z,20.10
2018-08-28T20:01:47.027Z,20.10
2018-08-28T20:04:16.024Z,20.10
2018-08-28T20:06:45.182Z,20.10
2018-08-28T20:09:14.191Z,20.10
2018-08-28T20:11:43.296Z,20.10
2018-08-28T20:14:12.305Z,20.10
2018-08-28T20:16:41.313Z,20.10
2018-08-28T20:19:10.592Z,20.00
2018-08-28T20:21:39.620Z,20.00
2018-08-28T20:24:08.670Z,20.00
2018-08-28T20:26:37.752Z,20.00
2018-08-28T20:29:06.749Z,20.00
2018-08-28T20:31:35.808Z,19.90
2018-08-28T20:34:04.885Z,20.00
2018-08-28T20:36:33.889Z,19.90
2018-08-28T20:39:02.997Z,19.90
2018-08-28T20:41:32.041Z,19.90
2018-08-28T20:44:01.096Z,19.90
2018-08-28T20:46:30.144Z,19.80
2018-08-28T20:48:59.173Z,19.80
2018-08-28T20:51:28.182Z,19.80
2018-08-28T20:53:57.181Z,19.90
2018-08-28T20:56:26.225Z,19.80
2018-08-28T20:58:55.896Z,19.80
2018-08-28T21:01:24.944Z,19.80
2018-08-28T21:03:53.948Z,19.80
2018-08-28T21:06:23.162Z,19.70
2018-08-28T21:08:52.145Z,19.70
2018-08-28T21:11:21.138Z,19.60
2018-08-28T21:13:50.182Z,19.60
2018-08-28T21:16:19.176Z,19.60
2018-08-28T21:18:51.753Z,19.50
2018-08-28T21:21:21.538Z,19.50
2018-08-28T21:23:50.568Z,19.50
2018-08-28T21:26:19.893Z,19.40
2018-08-28T21:28:48.899Z,19.40
2018-08-28T21:31:17.864Z,19.30
2018-08-28T21:33:46.910Z,19.30
2018-08-28T21:36:15.961Z,19.30
2018-08-28T21:38:45.178Z,19.20
2018-08-28T21:41:14.201Z,19.20
2018-08-28T21:43:43.595Z,19.10
2018-08-28T21:46:12.629Z,19.10
2018-08-28T21:48:41.667Z,19.10
2018-08-28T21:51:10.734Z,19.10
2018-08-28T21:53:39.747Z,19.10
2018-08-28T21:56:08.776Z,19.10
2018-08-28T21:58:37.785Z,19.10
2018-08-28T22:01:11.788Z,19.00
2018-08-28T22:03:42.174Z,19.00
2018-08-28T22:06:16.429Z,19.00
2018-08-28T22:08:45.734Z,19.00
2018-08-28T22:11:14.761Z,19.00
2018-08-28T22:13:43.885Z,18.90
2018-08-28T22:16:12.945Z,18.90
2018-08-28T22:18:42.014Z,18.90
2018-08-28T22:21:11.028Z,18.80
2018-08-28T22:23:40.061Z,18.70
2018-08-28T22:26:09.147Z,18.70
2018-08-28T22:28:38.160Z,18.60
2018-08-28T22:31:07.201Z,18.60
2018-08-28T22:33:36.216Z,18.60
2018-08-28T22:36:05.288Z,18.50
2018-08-28T22:38:34.364Z,18.50
2018-08-28T22:41:03.361Z,18.40
2018-08-28T22:43:32.373Z,18.40
2018-08-28T22:46:01.417Z,18.40
2018-08-28T22:48:30.441Z,18.30
2018-08-28T22:50:59.581Z,18.30
2018-08-28T22:53:28.624Z,18.30
2018-08-28T22:55:57.661Z,18.20
2018-08-28T22:58:26.696Z,18.20
2018-08-28T23:00:55.720Z,18.10
2018-08-28T23:03:25.021Z,18.10
2018-08-28T23:05:54.063Z,18.00
2018-08-28T23:08:23.074Z,18.00
2018-08-28T23:10:52.128Z,18.00
2018-08-28T23:13:21.136Z,17.90
2018-08-28T23:15:50.417Z,17.90
2018-08-28T23:18:19.441Z,17.90
2018-08-28T23:20:48.445Z,17.80
2018-08-28T23:23:17.497Z,17.80
2018-08-28T23:25:46.532Z,17.80
2018-08-28T23:28:15.585Z,17.80
2018-08-28T23:30:44.706Z,17.80
2018-08-28T23:33:14.053Z,17.70
2018-08-28T23:35:43.115Z,17.70
2018-08-28T23:38:12.156Z,17.70
2018-08-28T23:40:41.208Z,17.60
2018-08-28T23:43:10.217Z,17.60
2018-08-28T23:45:39.287Z,17.50
2018-08-28T23:48:08.304Z,17.50
2018-08-28T23:50:37.340Z,17.50
2018-08-28T23:53:06.389Z,17.40
2018-08-28T23:55:35.634Z,17.30
2018-08-28T23:58:04.749Z,17.30
